Alexandria Bay, New York
Current Conditions -  °F | °C
As of 10:58 PM on Wednesday 17 Dec 2014 (Local Time) from KGTB Reporting Station
Light Rain Light Rain  
Wind Chill: 27°   Ceiling: 1300
Heat Index: 34°   Visibility: 10mi
Dew Point: 31°   Wind: 8mph
Humidity: 90%   Direction: 270°W
Pressure: 29.82"   Gusts: NA
Location:  44.34°N, 75.92°W
Report Text: KGTB 180358Z AUTO 27007KT 10SM -RA BKN013 OVC020 01/00 A2982 RMK AO2 RAB0258DZE0258 SLP105 P0000 T00121003
Loading
Personal Weather Stations






























Interactive Weather Map New forecast layout! Learn more

10-Day Weather Forecast

Advertisements
Track Severe Weather on mobile